Allerton, Illinois
Current Conditions -  °F | °C
As of 4:53 PM on Tuesday 21 Oct 2014 (Local Time) from KCMI Reporting Station
Broken Clouds Broken Clouds  
Wind Chill: 59°   Ceiling: 5000
Heat Index: 59°   Visibility: 10mi
Dew Point: 41°   Wind: 13mph
Humidity: 51%   Direction: 30°NNE
Pressure: 30.17"   Gusts: 21mph
Location:  39.91°N, 87.94°W
Report Text: KCMI 212153Z 03011G18KT 10SM FEW026 BKN050 15/05 A3017 RMK AO2 SLP217 T01500050 $
Loading
Personal Weather Stations






























Interactive Weather Map
Tropical Storm Tracking
New forecast layout! Learn more

10-Day Weather Forecast

Advertisements
Track Severe Weather on mobile